Kapalua-West, HI

9:27 PM HST on September 02, 2014 (GMT -1000)
The Ridge at Kapalua | Change Station
CLOSE
Current Station
Personal Weather Station
Location: Kapalua, HI
Elevation: 100 ft
Nearby Weather Stations

Elev 100 ft 21.00 °N, 156.66 °W | Updated 22 seconds ago

Partly Cloudy
Partly Cloudy
78.3 °F
Feels Like 81 °F
N
6.9
Wind Variable Wind from ESE
Gusts 7.0 mph

Today
High -- | Low -- °F
--% Chance of Precip.
Yesterday
High -- | Low -- °F
Precip. -- in
6:10 AM 6:41 PM
First Quarter, 59% visible
Pressure 30.04 in
Visibility 10.0 miles
Clouds Few 4000 ft
Heat Index 81 °F
Dew Point 72 °F
Humidity 81%
Rainfall 0.00 in
Snow Depth Not available.
UV 0 out of 12
Pollen Not available.
Air Quality Not available.
Flu Activity Not available.
METAR PHOG 030654Z 10006KT 10SM FEW040 26/20 A3002 RMK AO2 SLP172 T02560200 $

More Conditions Fewer Conditions

Pressure 30.04 in
Visibility 10.0 miles
Clouds Few 4000 ft
Heat Index 81 °F
Dew Point 72 °F
Humidity 81%
Rainfall 0.00 in
Snow Depth Not available.
UV 0 out of 12
Pollen Not available.
Air Quality Not available.
Flu Activity Not available.
METAR PHOG 030654Z 10006KT 10SM FEW040 26/20 A3002 RMK AO2 SLP172 T02560200 $

More Conditions Fewer Conditions

10-Day Weather Forecast

Almanac

Astronomy

Sep. 02, 2014 Rise Set
Actual Time 6:10 AM HST 6:41 PM HST
Civil Twilight 5:48 AM HST 7:03 PM HST
Nautical Twilight 5:22 AM HST 7:30 PM HST
Astronomical Twilight 4:55 AM HST 7:56 PM HST
Moon 1:13 PM HST (9/2) No Moon Set
Length of Visible Light 13h 15m
Length of Day
12h 30m
Tomorrow will be 1m 9s shorter.
First Quarter, 59% of the Moon is Illuminated
Sep 3
First Quarter
Sep 8
Full
Sep 15
Last Quarter
Sep 24
New
Oct 1
First Quarter

Yesterday's Extremes

State Highs State Lows

Community

WunderPhotos

Upload Photos

1,749,891 photos uploaded!

Nearby

Snow Depth

Station Depth Elevation
No new snow has been reported.

Earthquake Activity

City Distance Mag. Time & Date
No recent earthquake activity has been reported nearby.
Minimum magnitude displayed is 2.5.

Coastal Water Temperatures

Place Temperature
No Stations Reporting

Nearby Weather Stations